^^
Paulen-Weather Station Historical Data
Daily Summary for May 20, 2022 Units:  English    Metric   Both
Daily Weekly Monthly Yearly Custom
  High: Low: Average:
Temperature: 59 °F 50 °F 54.7 °F
Dew Point: 53.6 °F 42.8 °F 50.4 °F
Humidity: 98% 63% 85%
Wind Speed: 23.6mph 0mph 8.7mph
Wind Gust: 17.4mph - -
Wind- - NW
Pressure: 30 in 29.8 in -
Precipitation: 0 in    
Historical Graphs
 
 
Tabular Data for May 20, 2022
Time Temperature Dew Point Pressure Wind Wind Speed Wind Gust Humidity Rainfall Rate (Hourly) solar
00:04 51.8 °F 51.8 °F 30 in NNW 6.2 mph 4.3 mph 98% 0.02 in 0 W/m2
00:09 51.8 °F 51.8 °F 30 in NNW 7.5 mph 5.6 mph 98% 0.02 in 0 W/m2
00:14 51.8 °F 51.8 °F 30 in NNW 7.5 mph 5 mph 98% 0.01 in 0 W/m2
00:19 51.8 °F 50 °F 30 in NW 5.6 mph 5 mph 98% 0.01 in 0 W/m2
00:24 51.8 °F 51.8 °F 30 in NW 6.2 mph 4.3 mph 98% 0.01 in 0 W/m2
00:29 51.8 °F 51.8 °F 30 in NNW 4.3 mph 3.1 mph 98% 0.01 in 0 W/m2
00:34 51.8 °F 50 °F 30 in NNW 5.6 mph 5 mph 98% 0.01 in 0 W/m2
00:39 51.8 °F 50 °F 30 in WNW 5.6 mph 4.3 mph 98% 0.01 in 0 W/m2
00:44 51.8 °F 50 °F 30 in NW 5.6 mph 5 mph 98% 0.01 in 0 W/m2
00:49 51.8 °F 50 °F 30 in WNW 5.6 mph 2.5 mph 98% 0.01 in 0 W/m2
00:54 51.8 °F 50 °F 30 in WNW 3.7 mph 2.5 mph 98% 0.01 in 0 W/m2
00:59 51.8 °F 51.8 °F 30 in NW 4.3 mph 3.1 mph 98% 0 in 0 W/m2
01:04 51.8 °F 51.8 °F 30 in WNW 4.3 mph 2.5 mph 98% 0 in 0 W/m2
01:09 51.8 °F 51.8 °F 30 in WNW 3.1 mph 1.9 mph 98% 0 in 0 W/m2
01:14 51.8 °F 51.8 °F 30 in W 3.1 mph 1.9 mph 98% 0 in 0 W/m2
01:19 51.8 °F 51.8 °F 30 in WNW 3.7 mph 3.1 mph 98% 0 in 0 W/m2
01:24 51.8 °F 51.8 °F 30 in NW 5.6 mph 3.7 mph 98% 0 in 0 W/m2
01:29 51.8 °F 51.8 °F 30 in NW 4.3 mph 3.1 mph 98% 0 in 0 W/m2
01:34 51.8 °F 51.8 °F 30 in WNW 3.7 mph 3.1 mph 98% 0 in 0 W/m2
01:39 51.8 °F 50 °F 30 in WNW 4.3 mph 3.1 mph 98% 0 in 0 W/m2
01:44 51.8 °F 50 °F 30 in WNW 5 mph 3.1 mph 98% 0 in 0 W/m2
01:49 51.8 °F 50 °F 30 in NW 5.6 mph 5.6 mph 98% 0 in 0 W/m2
01:54 51.8 °F 50 °F 30 in NNW 10.6 mph 7.5 mph 98% 0 in 0 W/m2
01:59 51.8 °F 50 °F 30 in NNW 13 mph 11.2 mph 98% 0 in 0 W/m2
02:04 51.8 °F 51.8 °F 30 in NW 14.3 mph 11.8 mph 98% 0 in 0 W/m2
02:09 51.8 °F 51.8 °F 30 in NW 10.6 mph 8.7 mph 97% 0 in 0 W/m2
02:14 51.8 °F 51.8 °F 30 in NW 11.8 mph 9.9 mph 97% 0 in 0 W/m2
02:19 51.8 °F 51.8 °F 30 in NW 9.9 mph 8.1 mph 97% 0 in 0 W/m2
02:24 51.8 °F 51.8 °F 30 in NW 11.2 mph 7.5 mph 96% 0 in 0 W/m2
02:29 51.8 °F 50 °F 30 in NW 9.3 mph 6.2 mph 96% 0 in 0 W/m2
02:34 51.8 °F 50 °F 30 in NW 6.8 mph 5.6 mph 96% 0 in 0 W/m2
02:39 51.8 °F 50 °F 30 in NW 8.1 mph 6.2 mph 95% 0 in 0 W/m2
02:44 51.8 °F 50 °F 30 in WNW 5.6 mph 4.3 mph 95% 0 in 0 W/m2
02:49 51.8 °F 50 °F 30 in W 2.5 mph 2.5 mph 95% 0 in 0 W/m2
02:54 51.8 °F 50 °F 30 in NW 3.7 mph 1.9 mph 95% 0 in 0 W/m2
02:59 51.8 °F 50 °F 30 in WNW 2.5 mph 1.9 mph 95% 0 in 0 W/m2
03:04 51.8 °F 50 °F 30 in WNW 3.7 mph 3.7 mph 95% 0 in 0 W/m2
03:09 51.8 °F 50 °F 30 in WNW 5.6 mph 4.3 mph 96% 0 in 0 W/m2
03:14 51.8 °F 50 °F 30 in WNW 6.2 mph 4.3 mph 96% 0 in 0 W/m2
03:19 51.8 °F 50 °F 30 in NW 5 mph 3.1 mph 96% 0 in 0 W/m2
03:24 51.8 °F 50 °F 30 in NW 5.6 mph 4.3 mph 95% 0 in 0 W/m2
03:29 51.8 °F 50 °F 30 in NW 9.3 mph 8.1 mph 96% 0 in 0 W/m2
03:34 51.8 °F 50 °F 30 in NW 10.6 mph 6.8 mph 95% 0 in 0 W/m2
03:39 51.8 °F 50 °F 30 in NW 7.5 mph 6.2 mph 95% 0 in 0 W/m2
03:44 51.8 °F 50 °F 30 in NW 9.9 mph 7.5 mph 95% 0 in 0 W/m2
03:49 51.8 °F 50 °F 30 in NW 7.5 mph 5.6 mph 94% 0 in 0 W/m2
03:54 51.8 °F 50 °F 30 in NW 6.2 mph 6.2 mph 94% 0 in 0 W/m2
03:59 51.8 °F 50 °F 30 in NW 6.2 mph 4.3 mph 94% 0 in 0 W/m2
04:04 51.8 °F 50 °F 30 in NW 6.8 mph 5 mph 94% 0 in 0 W/m2
04:09 51.8 °F 50 °F 30 in NW 8.1 mph 6.2 mph 93% 0 in 0 W/m2
04:14 51.8 °F 50 °F 30 in NW 8.7 mph 8.7 mph 93% 0 in 0 W/m2
04:19 51.8 °F 50 °F 30 in NW 9.9 mph 9.3 mph 92% 0 in 0 W/m2
04:24 51.8 °F 50 °F 30 in NW 9.9 mph 8.7 mph 92% 0 in 0 W/m2
04:29 51.8 °F 50 °F 30 in WNW 9.9 mph 6.8 mph 91% 0 in 0 W/m2
04:34 51.8 °F 50 °F 30 in WNW 8.1 mph 5.6 mph 91% 0 in 0 W/m2
04:39 51.8 °F 50 °F 30 in WNW 5 mph 3.7 mph 92% 0 in 0 W/m2
04:44 51.8 °F 50 °F 30 in WNW 3.1 mph 1.2 mph 92% 0 in 0 W/m2
04:49 51.8 °F 50 °F 30 in W 3.1 mph 2.5 mph 92% 0 in 5 W/m2
04:54 51.8 °F 48.2 °F 30 in WNW 3.1 mph 2.5 mph 92% 0 in 5 W/m2
04:59 51.8 °F 48.2 °F 30 in SW 3.7 mph 2.5 mph 92% 0 in 9 W/m2
05:04 50 °F 48.2 °F 30 in SW 2.5 mph 1.2 mph 93% 0 in 14 W/m2
05:09 50 °F 48.2 °F 30 in WSW 1.9 mph 0.6 mph 93% 0 in 19 W/m2
05:14 50 °F 48.2 °F 30 in WSW 1.9 mph 1.2 mph 93% 0 in 25 W/m2
05:19 50 °F 48.2 °F 30 in W 3.1 mph 1.2 mph 94% 0 in 32 W/m2
05:24 50 °F 48.2 °F 30 in W 2.5 mph 1.2 mph 94% 0 in 37 W/m2
05:29 50 °F 48.2 °F 30 in WSW 3.1 mph 1.9 mph 94% 0 in 44 W/m2
05:34 50 °F 48.2 °F 30 in W 3.1 mph 2.5 mph 94% 0 in 49 W/m2
05:39 50 °F 48.2 °F 30 in WNW 4.3 mph 2.5 mph 94% 0 in 58 W/m2
05:44 50 °F 48.2 °F 30 in W 6.8 mph 3.7 mph 94% 0 in 69 W/m2
05:49 50 °F 48.2 °F 30 in W 3.7 mph 3.1 mph 94% 0 in 77 W/m2
05:54 50 °F 50 °F 30 in W 3.1 mph 1.9 mph 95% 0 in 84 W/m2
05:59 50 °F 50 °F 30 in WNW 2.5 mph 1.2 mph 95% 0 in 91 W/m2
06:04 50 °F 50 °F 30 in W 3.7 mph 1.9 mph 95% 0 in 100 W/m2
06:09 50 °F 50 °F 30 in W 3.1 mph 1.9 mph 95% 0 in 107 W/m2
06:14 50 °F 50 °F 30 in W 3.1 mph 1.2 mph 95% 0 in 121 W/m2
06:19 51.8 °F 50 °F 30 in W 1.9 mph 1.2 mph 95% 0 in 135 W/m2
06:24 51.8 °F 50 °F 30 in WNW 3.1 mph 1.9 mph 95% 0 in 153 W/m2
06:29 51.8 °F 50 °F 30 in NW 3.1 mph 1.9 mph 95% 0 in 176 W/m2
06:34 51.8 °F 50 °F 30 in NW 3.7 mph 3.7 mph 94% 0 in 197 W/m2
06:39 51.8 °F 50 °F 30 in NW 5 mph 4.3 mph 94% 0 in 221 W/m2
06:44 51.8 °F 50 °F 30 in NW 5.6 mph 4.3 mph 93% 0 in 232 W/m2
06:49 51.8 °F 50 °F 30 in WNW 6.2 mph 5 mph 92% 0 in 192 W/m2
06:54 51.8 °F 50 °F 30 in WNW 5 mph 4.3 mph 92% 0 in 160 W/m2
06:59 51.8 °F 50 °F 30 in WNW 2.5 mph 1.9 mph 92% 0 in 144 W/m2
07:04 51.8 °F 50 °F 30 in W 4.3 mph 3.1 mph 92% 0 in 162 W/m2
07:09 51.8 °F 50 °F 30 in WNW 3.1 mph 1.9 mph 92% 0 in 255 W/m2
07:14 53.6 °F 50 °F 30 in WNW 3.7 mph 2.5 mph 92% 0 in 283 W/m2
07:19 53.6 °F 51.8 °F 30 in WNW 5 mph 3.1 mph 92% 0 in 283 W/m2
07:24 53.6 °F 51.8 °F 30 in WNW 3.1 mph 3.1 mph 91% 0 in 216 W/m2
07:29 53.6 °F 51.8 °F 30 in W 3.7 mph 4.3 mph 91% 0 in 207 W/m2
07:34 53.6 °F 51.8 °F 30 in W 3.1 mph 1.2 mph 91% 0 in 343 W/m2
07:39 53.6 °F 51.8 °F 30 in WNW 3.1 mph 1.2 mph 91% 0 in 343 W/m2
07:44 53.6 °F 51.8 °F 30 in NW 1.9 mph 1.2 mph 91% 0 in 330 W/m2
07:49 53.6 °F 51.8 °F 30 in NW 3.7 mph 3.1 mph 90% 0 in 234 W/m2
07:54 53.6 °F 51.8 °F 30 in WNW 3.7 mph 3.7 mph 90% 0 in 225 W/m2
07:59 53.6 °F 51.8 °F 30 in W 4.3 mph 2.5 mph 89% 0 in 200 W/m2
08:04 53.6 °F 51.8 °F 30 in WNW 3.1 mph 1.2 mph 90% 0 in 171 W/m2
08:09 53.6 °F 51.8 °F 30 in W 3.1 mph 1.9 mph 90% 0 in 276 W/m2
08:14 53.6 °F 51.8 °F 30 in WNW 3.1 mph 1.9 mph 90% 0 in 339 W/m2
08:19 53.6 °F 51.8 °F 30 in W 2.5 mph 1.2 mph 90% 0 in 316 W/m2
08:24 53.6 °F 51.8 °F 30 in W 3.7 mph 4.3 mph 90% 0 in 322 W/m2
08:29 53.6 °F 51.8 °F 30 in WNW 4.3 mph 3.1 mph 90% 0 in 355 W/m2
08:34 55.4 °F 51.8 °F 30 in W 3.7 mph 1.9 mph 90% 0 in 404 W/m2
08:39 55.4 °F 51.8 °F 30 in WNW 3.7 mph 3.7 mph 89% 0 in 432 W/m2
08:44 55.4 °F 51.8 °F 30 in NW 5.6 mph 3.1 mph 89% 0 in 489 W/m2
08:49 55.4 °F 51.8 °F 30 in WNW 6.2 mph 4.3 mph 88% 0 in 489 W/m2
08:54 55.4 °F 51.8 °F 30 in WNW 6.8 mph 3.7 mph 87% 0 in 485 W/m2
08:59 55.4 °F 51.8 °F 30 in NW 5 mph 3.1 mph 87% 0 in 490 W/m2
09:04 55.4 °F 51.8 °F 30 in NNW 6.2 mph 5.6 mph 86% 0 in 490 W/m2
09:09 55.4 °F 51.8 °F 30 in NW 6.8 mph 5.6 mph 86% 0 in 439 W/m2
09:14 55.4 °F 51.8 °F 30 in NNW 6.2 mph 5 mph 87% 0 in 547 W/m2
09:19 55.4 °F 51.8 °F 30 in NNW 8.1 mph 4.3 mph 87% 0 in 547 W/m2
09:24 55.4 °F 51.8 °F 30 in NW 8.1 mph 4.3 mph 87% 0 in 573 W/m2
09:29 55.4 °F 53.6 °F 30 in NNW 8.7 mph 5.6 mph 88% 0 in 573 W/m2
09:34 57.2 °F 53.6 °F 30 in NNW 6.2 mph 3.7 mph 87% 0 in 545 W/m2
09:39 57.2 °F 53.6 °F 30 in NW 7.5 mph 5 mph 86% 0 in 499 W/m2
09:44 57.2 °F 53.6 °F 30 in NNW 6.8 mph 4.3 mph 86% 0 in 564 W/m2
09:49 57.2 °F 53.6 °F 30 in NW 8.7 mph 8.1 mph 86% 0 in 573 W/m2
09:54 57.2 °F 53.6 °F 30 in N 7.5 mph 7.5 mph 85% 0 in 582 W/m2
09:59 57.2 °F 53.6 °F 30 in NNW 8.7 mph 5.6 mph 85% 0 in 594 W/m2
10:04 57.2 °F 53.6 °F 30 in NNW 8.1 mph 5.6 mph 86% 0 in 601 W/m2
10:09 57.2 °F 53.6 °F 30 in NNW 8.7 mph 6.2 mph 86% 0 in 608 W/m2
10:14 57.2 °F 53.6 °F 30 in NNW 9.9 mph 6.2 mph 86% 0 in 621 W/m2
10:19 57.2 °F 53.6 °F 30 in NNW 9.9 mph 8.1 mph 86% 0 in 628 W/m2
10:24 57.2 °F 53.6 °F 30 in N 7.5 mph 5.6 mph 86% 0 in 633 W/m2
10:29 57.2 °F 53.6 °F 30 in NW 8.1 mph 5.6 mph 86% 0 in 642 W/m2
10:34 57.2 °F 53.6 °F 30 in NNW 8.7 mph 6.8 mph 85% 0 in 649 W/m2
10:39 57.2 °F 53.6 °F 30 in N 8.7 mph 6.8 mph 85% 0 in 657 W/m2
10:44 57.2 °F 53.6 °F 30 in NW 7.5 mph 5 mph 85% 0 in 666 W/m2
10:49 57.2 °F 53.6 °F 30 in N 13 mph 11.8 mph 84% 0 in 675 W/m2
10:54 57.2 °F 53.6 °F 30 in N 13 mph 9.3 mph 85% 0 in 682 W/m2
10:59 57.2 °F 53.6 °F 30 in NNW 10.6 mph 6.8 mph 86% 0 in 687 W/m2
11:09 57.2 °F 53.6 °F 30 in N 11.2 mph 6.8 mph 86% 0 in 701 W/m2
11:14 57.2 °F 53.6 °F 30 in NNW 12.4 mph 8.1 mph 86% 0 in 710 W/m2
11:19 57.2 °F 53.6 °F 30 in NNW 11.8 mph 8.7 mph 86% 0 in 715 W/m2
11:24 57.2 °F 53.6 °F 30 in NNW 6.8 mph 6.8 mph 85% 0 in 721 W/m2
11:29 57.2 °F 53.6 °F 30 in NNW 11.2 mph 7.5 mph 85% 0 in 724 W/m2
11:34 57.2 °F 53.6 °F 30 in NNW 9.3 mph 9.9 mph 85% 0 in 728 W/m2
11:39 57.2 °F 53.6 °F 30 in NNW 11.2 mph 10.6 mph 84% 0 in 735 W/m2
11:44 57.2 °F 53.6 °F 30 in N 13.7 mph 11.2 mph 84% 0 in 747 W/m2
11:49 57.2 °F 51.8 °F 30 in N 13 mph 10.6 mph 84% 0 in 744 W/m2
11:54 57.2 °F 51.8 °F 30 in N 16.2 mph 13 mph 85% 0 in 756 W/m2
11:59 57.2 °F 53.6 °F 30 in NNW 13 mph 10.6 mph 85% 0 in 768 W/m2
12:04 57.2 °F 53.6 °F 30 in N 11.2 mph 11.8 mph 84% 0 in 772 W/m2
12:09 57.2 °F 53.6 °F 30 in N 15.5 mph 11.2 mph 83% 0 in 728 W/m2
12:14 57.2 °F 51.8 °F 30 in NNW 13.7 mph 10.6 mph 83% 0 in 751 W/m2
12:19 57.2 °F 51.8 °F 30 in NNW 10.6 mph 8.1 mph 84% 0 in 751 W/m2
12:24 57.2 °F 53.6 °F 30 in NNW 10.6 mph 9.9 mph 84% 0 in 772 W/m2
12:29 57.2 °F 53.6 °F 30 in NNW 11.8 mph 9.3 mph 83% 0 in 766 W/m2
12:34 59 °F 53.6 °F 30 in NNW 11.8 mph 7.5 mph 82% 0 in 766 W/m2
12:39 59 °F 53.6 °F 30 in NNW 8.7 mph 6.2 mph 81% 0 in 795 W/m2
12:44 59 °F 53.6 °F 30 in NW 9.9 mph 7.5 mph 80% 0 in 773 W/m2
12:49 59 °F 53.6 °F 30 in NNW 10.6 mph 8.7 mph 79% 0 in 761 W/m2
12:54 59 °F 51.8 °F 30 in N 12.4 mph 11.2 mph 77% 0 in 712 W/m2
12:59 59 °F 51.8 °F 30 in N 16.8 mph 12.4 mph 77% 0 in 631 W/m2
13:04 59 °F 51.8 °F 30 in N 15.5 mph 11.2 mph 78% 0 in 612 W/m2
13:09 57.2 °F 51.8 °F 30 in N 16.8 mph 14.3 mph 78% 0 in 708 W/m2
13:14 57.2 °F 51.8 °F 30 in N 17.4 mph 14.3 mph 79% 0 in 728 W/m2
13:19 57.2 °F 50 °F 30 in N 20.5 mph 17.4 mph 80% 0 in 749 W/m2
13:24 55.4 °F 50 °F 30 in N 23.6 mph 17.4 mph 82% 0 in 779 W/m2
13:29 55.4 °F 50 °F 30 in N 23 mph 17.4 mph 83% 0 in 721 W/m2
13:34 55.4 °F 50 °F 30 in N 21.7 mph 14.3 mph 84% 0 in 582 W/m2
13:39 55.4 °F 51.8 °F 30 in N 14.3 mph 10.6 mph 85% 0 in 817 W/m2
13:44 55.4 °F 51.8 °F 30 in N 13 mph 9.3 mph 84% 0 in 773 W/m2
13:49 57.2 °F 51.8 °F 29.9 in N 14.9 mph 11.2 mph 82% 0 in 803 W/m2
13:54 57.2 °F 51.8 °F 29.9 in N 14.3 mph 9.3 mph 81% 0 in 807 W/m2
13:59 57.2 °F 51.8 °F 29.9 in N 14.9 mph 11.2 mph 80% 0 in 802 W/m2
14:04 57.2 °F 51.8 °F 29.9 in N 11.2 mph 7.5 mph 80% 0 in 752 W/m2
14:09 57.2 °F 51.8 °F 29.9 in N 13.7 mph 10.6 mph 80% 0 in 759 W/m2
14:14 57.2 °F 51.8 °F 29.9 in NNW 15.5 mph 11.8 mph 79% 0 in 759 W/m2
14:19 57.2 °F 51.8 °F 29.9 in NNW 15.5 mph 9.3 mph 80% 0 in 752 W/m2
14:24 57.2 °F 51.8 °F 29.9 in NNW 14.3 mph 10.6 mph 79% 0 in 700 W/m2
14:29 57.2 °F 51.8 °F 29.9 in N 14.9 mph 9.9 mph 79% 0 in 675 W/m2
14:34 57.2 °F 51.8 °F 29.9 in N 16.2 mph 11.2 mph 78% 0 in 666 W/m2
14:39 57.2 °F 51.8 °F 29.9 in N 15.5 mph 10.6 mph 79% 0 in 680 W/m2
14:44 57.2 °F 51.8 °F 29.9 in N 14.3 mph 12.4 mph 79% 0 in 703 W/m2
14:49 57.2 °F 51.8 °F 29.9 in N 16.2 mph 11.8 mph 79% 0 in 689 W/m2
14:54 57.2 °F 51.8 °F 29.9 in N 17.4 mph 12.4 mph 80% 0 in 701 W/m2
14:59 57.2 °F 51.8 °F 29.9 in N 16.8 mph 13 mph 80% 0 in 694 W/m2
15:04 57.2 °F 51.8 °F 29.9 in N 15.5 mph 12.4 mph 80% 0 in 664 W/m2
15:09 57.2 °F 51.8 °F 29.9 in N 16.2 mph 13 mph 81% 0 in 664 W/m2
15:14 57.2 °F 51.8 °F 29.9 in N 15.5 mph 12.4 mph 79% 0 in 633 W/m2
15:19 57.2 °F 51.8 °F 29.9 in N 15.5 mph 11.8 mph 79% 0 in 580 W/m2
15:24 57.2 °F 51.8 °F 29.9 in N 16.2 mph 11.8 mph 79% 0 in 513 W/m2
15:29 57.2 °F 51.8 °F 29.9 in N 13.7 mph 11.8 mph 79% 0 in 563 W/m2
15:34 57.2 °F 51.8 °F 29.9 in N 17.4 mph 14.9 mph 79% 0 in 571 W/m2
15:39 57.2 °F 51.8 °F 29.9 in N 19.3 mph 14.3 mph 79% 0 in 605 W/m2
15:44 57.2 °F 51.8 °F 29.9 in N 17.4 mph 11.2 mph 81% 0 in 596 W/m2
15:49 57.2 °F 51.8 °F 29.9 in N 16.8 mph 14.3 mph 81% 0 in 559 W/m2
15:54 57.2 °F 51.8 °F 29.9 in N 16.2 mph 13 mph 81% 0 in 490 W/m2
15:59 57.2 °F 51.8 °F 29.9 in N 14.3 mph 10.6 mph 80% 0 in 473 W/m2
16:04 57.2 °F 51.8 °F 29.9 in N 13.7 mph 10.6 mph 80% 0 in 475 W/m2
16:09 57.2 °F 51.8 °F 29.9 in N 12.4 mph 9.9 mph 80% 0 in 457 W/m2
16:14 57.2 °F 50 °F 29.9 in N 11.8 mph 9.9 mph 79% 0 in 436 W/m2
16:19 57.2 °F 51.8 °F 29.9 in N 11.8 mph 8.7 mph 79% 0 in 443 W/m2
16:24 57.2 °F 51.8 °F 29.9 in N 14.3 mph 12.4 mph 79% 0 in 429 W/m2
16:29 57.2 °F 51.8 °F 29.9 in N 13 mph 10.6 mph 81% 0 in 418 W/m2
16:32 57.2 °F 50 °F 29.9 in N 11.2 mph 8.1 mph 81% 0 in 371 W/m2
16:39 57.2 °F 51.8 °F 29.9 in N 13.7 mph 11.2 mph 81% 0 in 357 W/m2
16:44 57.2 °F 50 °F 29.9 in NNW 11.2 mph 8.7 mph 81% 0 in 341 W/m2
16:49 57.2 °F 50 °F 29.9 in N 9.9 mph 7.5 mph 80% 0 in 330 W/m2
16:54 57.2 °F 50 °F 29.9 in N 12.4 mph 9.3 mph 80% 0 in 313 W/m2
16:59 57.2 °F 50 °F 29.9 in N 9.9 mph 7.5 mph 80% 0 in 295 W/m2
17:04 57.2 °F 50 °F 29.9 in NNW 12.4 mph 9.3 mph 81% 0 in 281 W/m2
17:09 55.4 °F 50 °F 29.9 in N 11.8 mph 9.9 mph 82% 0 in 272 W/m2
17:14 55.4 °F 50 °F 29.9 in NNW 7.5 mph 5.6 mph 82% 0 in 257 W/m2
17:19 57.2 °F 50 °F 29.9 in NNW 8.1 mph 5.6 mph 81% 0 in 230 W/m2
17:24 57.2 °F 50 °F 29.9 in NW 6.8 mph 4.3 mph 80% 0 in 220 W/m2
17:29 57.2 °F 50 °F 29.9 in N 8.1 mph 6.2 mph 79% 0 in 202 W/m2
17:34 57.2 °F 50 °F 29.9 in NNW 11.2 mph 8.7 mph 79% 0 in 190 W/m2
17:39 57.2 °F 50 °F 29.9 in NW 5.6 mph 3.7 mph 79% 0 in 178 W/m2
17:44 57.2 °F 50 °F 29.9 in NNW 6.8 mph 5 mph 79% 0 in 167 W/m2
17:49 57.2 °F 50 °F 29.9 in NNW 7.5 mph 5 mph 77% 0 in 156 W/m2
17:54 57.2 °F 50 °F 29.9 in N 7.5 mph 4.3 mph 77% 0 in 151 W/m2
17:59 57.2 °F 50 °F 29.9 in NNW 5.6 mph 3.7 mph 77% 0 in 141 W/m2
18:04 57.2 °F 50 °F 29.9 in N 8.1 mph 5.6 mph 77% 0 in 128 W/m2
18:09 57.2 °F 50 °F 29.9 in N 8.7 mph 7.5 mph 79% 0 in 118 W/m2
18:14 55.4 °F 50 °F 29.9 in NNW 10.6 mph 7.5 mph 81% 0 in 107 W/m2
18:19 55.4 °F 50 °F 29.9 in NNW 7.5 mph 6.2 mph 81% 0 in 97 W/m2
18:24 55.4 °F 50 °F 29.9 in N 11.2 mph 8.7 mph 82% 0 in 93 W/m2
18:29 55.4 °F 50 °F 29.9 in N 12.4 mph 8.1 mph 84% 0 in 93 W/m2
18:34 55.4 °F 50 °F 29.9 in N 10.6 mph 7.5 mph 85% 0 in 97 W/m2
18:39 55.4 °F 50 °F 29.9 in N 10.6 mph 8.1 mph 85% 0 in 109 W/m2
18:44 55.4 °F 50 °F 29.9 in NNW 10.6 mph 6.8 mph 85% 0 in 120 W/m2
18:49 55.4 °F 50 °F 29.9 in NNW 9.3 mph 6.2 mph 84% 0 in 121 W/m2
18:54 55.4 °F 50 °F 29.9 in N 11.2 mph 8.7 mph 84% 0 in 121 W/m2
18:59 55.4 °F 50 °F 29.9 in N 14.3 mph 10.6 mph 84% 0 in 128 W/m2
19:04 55.4 °F 50 °F 29.9 in N 14.3 mph 10.6 mph 85% 0 in 125 W/m2
19:09 55.4 °F 50 °F 29.9 in N 13 mph 8.1 mph 83% 0 in 100 W/m2
19:14 55.4 °F 50 °F 29.9 in N 11.2 mph 6.2 mph 83% 0 in 95 W/m2
19:19 55.4 °F 50 °F 29.9 in N 10.6 mph 6.8 mph 83% 0 in 98 W/m2
19:24 55.4 °F 50 °F 29.9 in NNW 9.9 mph 5.6 mph 84% 0 in 98 W/m2
19:29 55.4 °F 50 °F 29.9 in N 11.8 mph 8.1 mph 84% 0 in 83 W/m2
19:34 53.6 °F 50 °F 29.9 in N 12.4 mph 9.3 mph 84% 0 in 67 W/m2
19:39 53.6 °F 50 °F 29.9 in NNW 11.2 mph 6.8 mph 84% 0 in 70 W/m2
19:44 53.6 °F 50 °F 29.9 in N 10.6 mph 7.5 mph 84% 0 in 81 W/m2
19:49 53.6 °F 50 °F 29.9 in N 11.2 mph 9.9 mph 83% 0 in 84 W/m2
19:54 55.4 °F 50 °F 29.9 in N 11.8 mph 9.9 mph 83% 0 in 84 W/m2
19:59 53.6 °F 50 °F 29.9 in NNW 11.2 mph 8.7 mph 83% 0 in 79 W/m2
20:04 53.6 °F 50 °F 29.8 in NNW 9.9 mph 6.8 mph 84% 0 in 58 W/m2
20:09 53.6 °F 50 °F 29.8 in N 11.8 mph 8.1 mph 84% 0 in 49 W/m2
20:14 53.6 °F 50 °F 29.8 in N 9.9 mph 6.8 mph 84% 0 in 40 W/m2
20:19 53.6 °F 50 °F 29.8 in N 9.3 mph 5.6 mph 85% 0 in 33 W/m2
20:24 53.6 °F 50 °F 29.8 in NNW 7.5 mph 5 mph 85% 0 in 30 W/m2
20:29 53.6 °F 50 °F 29.8 in NNW 9.3 mph 5 mph 84% 0 in 28 W/m2
20:34 53.6 °F 50 °F 29.8 in NW 6.8 mph 4.3 mph 84% 0 in 26 W/m2
20:39 53.6 °F 50 °F 29.8 in NW 6.2 mph 3.7 mph 84% 0 in 25 W/m2
20:44 53.6 °F 50 °F 29.8 in NW 5.6 mph 3.7 mph 84% 0 in 23 W/m2
20:49 53.6 °F 50 °F 29.8 in NW 7.5 mph 3.7 mph 83% 0 in 18 W/m2
20:54 53.6 °F 48.2 °F 29.8 in NW 5 mph 2.5 mph 82% 0 in 14 W/m2
20:59 53.6 °F 48.2 °F 29.8 in NNW 6.2 mph 4.3 mph 81% 0 in 14 W/m2
21:04 55.4 °F 48.2 °F 29.8 in NW 5 mph 5.6 mph 80% 0 in 14 W/m2
21:09 55.4 °F 48.2 °F 29.8 in NNW 7.5 mph 5.6 mph 79% 0 in 14 W/m2
21:14 55.4 °F 48.2 °F 29.8 in WNW 3.1 mph 2.5 mph 79% 0 in 12 W/m2
21:19 55.4 °F 48.2 °F 29.8 in WNW 4.3 mph 1.9 mph 78% 0 in 11 W/m2
21:24 55.4 °F 48.2 °F 29.8 in NNW 5.6 mph 3.7 mph 78% 0 in 9 W/m2
21:29 55.4 °F 48.2 °F 29.8 in NNW 6.2 mph 4.3 mph 78% 0 in 7 W/m2
21:34 55.4 °F 48.2 °F 29.8 in WNW 6.2 mph 4.3 mph 78% 0 in 5 W/m2
21:39 55.4 °F 48.2 °F 29.8 in NW 6.8 mph 6.8 mph 77% 0 in 5 W/m2
21:44 55.4 °F 48.2 °F 29.8 in NW 9.3 mph 7.5 mph 76% 0 in 0 W/m2
21:49 55.4 °F 46.4 °F 29.8 in NW 8.7 mph 7.5 mph 75% 0 in 0 W/m2
21:54 55.4 °F 46.4 °F 29.8 in NW 6.8 mph 5.6 mph 73% 0 in 0 W/m2
21:59 55.4 °F 46.4 °F 29.8 in NW 5.6 mph 3.7 mph 72% 0 in 0 W/m2
22:04 55.4 °F 46.4 °F 29.8 in NW 8.7 mph 8.7 mph 71% 0 in 0 W/m2
22:09 55.4 °F 46.4 °F 29.8 in NNW 11.8 mph 8.1 mph 70% 0 in 0 W/m2
22:14 55.4 °F 46.4 °F 29.8 in NNW 13.7 mph 11.2 mph 69% 0 in 0 W/m2
22:19 55.4 °F 44.6 °F 29.8 in NNW 14.9 mph 11.8 mph 67% 0 in 0 W/m2
22:24 55.4 °F 44.6 °F 29.8 in NNW 12.4 mph 13 mph 66% 0 in 0 W/m2
22:29 55.4 °F 44.6 °F 29.8 in NNW 17.4 mph 13 mph 64% 0 in 0 W/m2
22:34 57.2 °F 44.6 °F 29.8 in NNW 16.8 mph 11.2 mph 64% 0 in 0 W/m2
22:39 57.2 °F 44.6 °F 29.8 in NW 6.8 mph 8.1 mph 64% 0 in 0 W/m2
22:44 55.4 °F 44.6 °F 29.8 in NNE 5.6 mph 5 mph 64% 0 in 0 W/m2
22:49 55.4 °F 44.6 °F 29.8 in N 9.9 mph 9.3 mph 65% 0 in 0 W/m2
22:54 55.4 °F 44.6 °F 29.8 in N 11.2 mph 8.7 mph 66% 0 in 0 W/m2
22:59 55.4 °F 44.6 °F 29.8 in N 8.1 mph 8.1 mph 66% 0 in 0 W/m2
23:04 55.4 °F 44.6 °F 29.8 in WNW 6.2 mph 4.3 mph 66% 0 in 0 W/m2
23:09 55.4 °F 44.6 °F 29.8 in NW 6.8 mph 5 mph 65% 0 in 0 W/m2
23:14 55.4 °F 42.8 °F 29.8 in WNW 4.3 mph 3.1 mph 64% 0 in 0 W/m2
23:19 55.4 °F 42.8 °F 29.8 in W 3.1 mph 1.9 mph 64% 0 in 0 W/m2
23:24 55.4 °F 42.8 °F 29.8 in WSW 1.9 mph 0.6 mph 64% 0 in 0 W/m2
23:29 55.4 °F 42.8 °F 29.8 in N 2.5 mph 1.9 mph 64% 0 in 0 W/m2
23:34 55.4 °F 42.8 °F 29.8 in Calm     64% 0 in 0 W/m2
23:39 55.4 °F 42.8 °F 29.8 in N 0.6 mph   64% 0 in 0 W/m2
23:44 55.4 °F 42.8 °F 29.8 in Calm   1.2 mph 64% 0 in 0 W/m2
23:49 55.4 °F 42.8 °F 29.8 in NW 7.5 mph 6.8 mph 63% 0 in 0 W/m2
23:54 55.4 °F 42.8 °F 29.8 in NNW 5 mph 4.3 mph 63% 0 in 0 W/m2
23:59 55.4 °F 42.8 °F 29.8 in N 6.8 mph 6.8 mph 63% 0 in 0 W/m2
Compliments of Weather Underground - 2 mb